Time;durP1;ratioP1;P1;durP2;ratioP2;P2;SDS_P1;SDS_P2;PMS_P1;PMS_P2;Temp;Humidity;BMP_temperature;BMP_pressure;BME280_temperature;BME280_humidity;BME280_pressure;Samples;Min_cycle;Max_cycle;Signal;HPM_P1;HPM_P2
2022/01/25 00:33:33;;;;;;;0.20;0.10;;;;;;;-1.98;100.00;101975.94;5011951;28;20504;-55
2022/01/25 00:36:03;;;;;;;0.30;0.20;;;;;;;-2.16;100.00;101974.19;5012146;28;20502;-54
2022/01/25 00:38:30;;;;;;;0.20;0.10;;;;;;;-2.20;100.00;101976.56;5011916;28;20481;-54
2022/01/25 00:40:57;;;;;;;0.20;0.10;;;;;;;-2.23;100.00;101974.69;5012465;28;20823;-54
2022/01/25 00:43:26;;;;;;;0.20;0.10;;;;;;;-2.29;100.00;101978.72;5003884;28;20579;-54
2022/01/25 00:46:00;;;;;;;0.20;0.10;;;;;;;-2.23;100.00;101977.31;4998000;28;20524;-54
2022/01/25 00:51:24;;;;;;;0.20;0.10;;;;;;;-2.33;100.00;101981.97;4989753;28;20465;-55
2022/01/25 00:56:26;;;;;;;0.20;0.10;;;;;;;-2.34;100.00;101980.19;5015520;28;20448;-54
2022/01/25 00:58:53;;;;;;;0.20;0.10;;;;;;;-2.34;100.00;101988.00;5015611;28;20441;-54
2022/01/25 01:01:20;;;;;;;0.20;0.10;;;;;;;-2.31;100.00;101991.66;5012610;28;20464;-55
2022/01/25 01:03:47;;;;;;;0.30;0.20;;;;;;;-2.33;100.00;101987.16;5014923;28;20500;-54
2022/01/25 01:06:15;;;;;;;0.20;0.10;;;;;;;-2.22;100.00;101988.63;5015198;28;20452;-54
2022/01/25 01:08:42;;;;;;;0.20;0.20;;;;;;;-2.34;100.00;101985.38;5014920;28;20887;-55
2022/01/25 01:11:15;;;;;;;0.20;0.10;;;;;;;-2.40;100.00;101994.69;5015155;28;20866;-55
2022/01/25 01:30:11;;;;;;;0.20;0.10;;;;;;;-2.45;100.00;101983.16;5014731;28;20479;-54
2022/01/25 01:43:29;;;;;;;0.20;0.10;;;;;;;-2.49;100.00;101993.31;4990940;28;20485;-54
2022/01/25 01:48:55;;;;;;;0.20;0.10;;;;;;;-2.50;100.00;101984.59;4993183;28;20480;-54
2022/01/25 01:51:32;;;;;;;0.20;0.10;;;;;;;-2.48;100.00;101976.88;5009864;28;21001;-54
2022/01/25 01:54:10;;;;;;;0.20;0.10;;;;;;;-2.54;100.00;101980.06;5006932;28;20972;-54
2022/01/25 01:56:38;;;;;;;0.20;0.10;;;;;;;-2.67;100.00;101981.97;5014292;28;20922;-55
2022/01/25 01:59:09;;;;;;;0.20;0.10;;;;;;;-2.56;100.00;101996.44;5014256;28;20506;-54
2022/01/25 02:01:38;;;;;;;0.20;0.10;;;;;;;-2.71;100.00;101979.19;5014139;28;20871;-54
2022/01/25 02:04:08;;;;;;;0.20;0.10;;;;;;;-2.73;100.00;101982.53;5013784;28;20499;-54
2022/01/25 02:06:35;;;;;;;0.20;0.20;;;;;;;-2.70;100.00;101977.50;5014399;28;20510;-55
2022/01/25 02:09:04;;;;;;;0.20;0.10;;;;;;;-2.69;100.00;101980.16;5014195;28;20460;-54
2022/01/25 02:11:31;;;;;;;0.20;0.10;;;;;;;-2.66;100.00;101971.63;5014086;28;20993;-54
2022/01/25 02:14:03;;;;;;;0.20;0.10;;;;;;;-2.64;100.00;101966.50;5014037;28;20883;-54
2022/01/25 02:22:26;;;;;;;0.20;0.10;;;;;;;-2.74;100.00;101970.31;5013973;28;20868;-55
2022/01/25 02:24:53;;;;;;;0.20;0.10;;;;;;;-2.71;100.00;101961.00;5013592;28;20966;-54
2022/01/25 02:27:20;;;;;;;0.20;0.10;;;;;;;-2.69;100.00;101961.06;5013735;28;20618;-55
2022/01/25 02:29:47;;;;;;;0.20;0.20;;;;;;;-2.69;100.00;101961.97;5013631;28;20453;-54
2022/01/25 02:32:14;;;;;;;0.53;0.53;;;;;;;-2.70;100.00;101961.88;5013586;28;20440;-54
2022/01/25 02:34:41;;;;;;;0.20;0.10;;;;;;;-2.75;100.00;101964.22;5013545;28;20538;-54
2022/01/25 02:37:11;;;;;;;0.20;0.10;;;;;;;-2.79;100.00;101959.69;4987519;28;20998;-54
2022/01/25 02:39:39;;;;;;;7.30;2.17;;;;;;;-2.74;100.00;101953.03;5013595;28;20823;-54
2022/01/25 02:42:06;;;;;;;0.20;0.10;;;;;;;-2.84;100.00;101955.06;5013556;28;20492;-54
2022/01/25 02:44:35;;;;;;;0.20;0.10;;;;;;;-2.75;100.00;101953.81;5004511;28;20473;-55
2022/01/25 02:49:33;;;;;;;0.20;0.10;;;;;;;-2.87;100.00;101961.00;5013425;28;20992;-54
2022/01/25 02:52:02;;;;;;;0.20;0.10;;;;;;;-2.97;100.00;101961.31;5006770;28;20491;-54
2022/01/25 02:54:30;;;;;;;0.20;0.10;;;;;;;-2.81;100.00;101953.50;5013428;28;20468;-55
2022/01/25 02:56:57;;;;;;;0.20;0.20;;;;;;;-2.75;100.00;101963.31;5013300;28;20453;-54
2022/01/25 02:59:24;;;;;;;0.20;0.10;;;;;;;-2.91;100.00;101956.44;5013308;28;20449;-54
2022/01/25 03:01:50;;;;;;;0.20;0.10;;;;;;;-2.90;100.00;101957.31;5012845;28;20522;-54
2022/01/25 03:04:21;;;;;;;0.20;0.10;;;;;;;-2.85;100.00;101961.97;5013064;28;20468;-55
2022/01/25 03:06:48;;;;;;;0.20;0.13;;;;;;;-2.93;100.00;101952.88;5012899;28;20946;-55
2022/01/25 03:09:15;;;;;;;0.20;0.10;;;;;;;-3.05;100.00;101953.09;5013113;28;20452;-54
2022/01/25 03:11:46;;;;;;;0.20;0.10;;;;;;;-2.98;100.00;101946.53;5012999;28;20452;-54
2022/01/25 03:14:12;;;;;;;0.20;0.10;;;;;;;-2.82;100.00;101949.13;5013041;28;20527;-54
2022/01/25 03:16:45;;;;;;;0.20;0.10;;;;;;;-2.95;100.00;101949.28;5012779;28;20456;-54
2022/01/25 03:22:43;;;;;;;0.20;0.10;;;;;;;-3.01;100.00;101946.38;5012740;28;20992;-54
2022/01/25 03:25:06;;;;;;;0.20;0.10;;;;;;;-3.02;100.00;101942.84;4992341;28;20846;-56
2022/01/25 03:27:33;;;;;;;0.20;0.10;;;;;;;-3.03;100.00;101929.78;5012518;28;20460;-54
2022/01/25 03:29:59;;;;;;;0.20;0.10;;;;;;;-3.15;100.00;101934.31;5012859;28;20826;-54
2022/01/25 03:32:26;;;;;;;0.20;0.10;;;;;;;-3.16;100.00;101936.03;5012762;28;20882;-55
2022/01/25 03:34:52;;;;;;;0.20;0.10;;;;;;;-3.15;100.00;101942.13;5012498;28;20480;-54
2022/01/25 03:37:19;;;;;;;0.20;0.10;;;;;;;-3.17;100.00;101938.56;5012635;28;20456;-54
2022/01/25 03:39:45;;;;;;;0.30;0.23;;;;;;;-3.12;100.00;101944.91;5012510;28;20996;-54
2022/01/25 03:42:15;;;;;;;0.20;0.10;;;;;;;-3.08;100.00;101950.34;5012475;28;20457;-55
2022/01/25 03:44:43;;;;;;;0.20;0.10;;;;;;;-2.90;100.00;101946.91;5002771;28;20506;-55
2022/01/25 03:47:14;;;;;;;0.20;0.10;;;;;;;-2.95;100.00;101945.81;5009458;28;20460;-54
2022/01/25 03:49:52;;;;;;;0.20;0.10;;;;;;;-3.02;100.00;101952.38;5012448;28;20484;-54
2022/01/25 03:52:26;;;;;;;0.20;0.10;;;;;;;-3.14;100.00;101947.44;5006265;28;20491;-54
2022/01/25 03:54:53;;;;;;;0.20;0.10;;;;;;;-3.18;100.00;101948.06;5012265;28;20488;-54
2022/01/25 03:57:20;;;;;;;0.20;0.10;;;;;;;-3.17;100.00;101954.16;5012368;28;20480;-55
2022/01/25 03:59:47;;;;;;;0.20;0.10;;;;;;;-3.21;100.00;101953.09;5012631;28;20449;-54
2022/01/25 04:02:14;;;;;;;0.20;0.10;;;;;;;-3.22;100.00;101953.91;5012301;28;20483;-54
2022/01/25 04:04:41;;;;;;;0.20;0.10;;;;;;;-3.15;100.00;101944.72;5012137;28;20500;-54
2022/01/25 04:07:10;;;;;;;0.20;0.10;;;;;;;-3.24;100.00;101941.66;5012306;28;20448;-54
2022/01/25 04:09:38;;;;;;;0.93;0.93;;;;;;;-3.25;100.00;101947.66;5012161;28;20503;-54
2022/01/25 04:12:06;;;;;;;0.20;0.10;;;;;;;-3.25;100.00;101945.97;5012439;28;20527;-54
2022/01/25 04:14:33;;;;;;;0.20;0.10;;;;;;;-3.30;100.00;101937.91;5011968;28;21004;-55
2022/01/25 04:27:13;;;;;;;0.20;0.10;;;;;;;-3.03;100.00;101933.28;5015989;28;20460;-55
2022/01/25 04:29:40;;;;;;;0.20;0.10;;;;;;;-3.00;100.00;101935.16;5015868;28;20454;-54
2022/01/25 04:32:07;;;;;;;1.80;1.27;;;;;;;-3.00;100.00;101930.84;5015702;28;20484;-54
2022/01/25 04:53:55;;;;;;;0.20;0.10;;;;;;;-3.18;100.00;101932.47;5011796;28;20537;-54
2022/01/25 04:56:33;;;;;;;0.20;0.10;;;;;;;-3.21;100.00;101941.81;5015601;28;20495;-54
2022/01/25 04:59:12;;;;;;;0.33;0.33;;;;;;;-3.08;100.00;101942.53;4990530;28;20826;-54
2022/01/25 05:01:40;;;;;;;0.20;0.10;;;;;;;-3.12;100.00;101935.41;5015528;28;20445;-55
2022/01/25 05:04:09;;;;;;;0.20;0.10;;;;;;;-2.98;100.00;101943.94;5015317;28;20587;-54
2022/01/25 05:06:36;;;;;;;0.20;0.10;;;;;;;-2.95;100.00;101938.00;5015100;28;20502;-54
2022/01/25 05:09:09;;;;;;;0.20;0.10;;;;;;;-3.01;100.00;101930.78;5015241;28;20456;-55
2022/01/25 05:11:41;;;;;;;0.30;0.30;;;;;;;-2.95;100.00;101936.28;5014893;28;20452;-55
2022/01/25 05:14:16;;;;;;;0.20;0.10;;;;;;;-2.85;100.00;101940.28;5015134;28;20967;-55
2022/01/25 05:16:51;;;;;;;0.20;0.10;;;;;;;-2.89;100.00;101934.00;5015095;28;20498;-55
2022/01/25 05:22:05;;;;;;;0.20;0.10;;;;;;;-2.71;100.00;101939.28;5014856;28;20456;-55
2022/01/25 05:24:38;;;;;;;0.20;0.10;;;;;;;-2.76;100.00;101945.94;5014983;28;20491;-55
2022/01/25 05:27:06;;;;;;;0.20;0.10;;;;;;;-2.72;100.00;101946.19;5014876;28;20445;-54
2022/01/25 05:29:33;;;;;;;0.20;0.10;;;;;;;-2.77;100.00;101947.63;5013717;28;20456;-54
2022/01/25 05:32:00;;;;;;;0.20;0.10;;;;;;;-2.65;100.00;101946.50;5014904;28;20498;-54
2022/01/25 05:34:27;;;;;;;0.20;0.10;;;;;;;-2.15;100.00;101949.06;5014406;28;20488;-55
2022/01/25 05:36:53;;;;;;;0.20;0.10;;;;;;;-1.96;100.00;101941.31;5014827;28;20452;-54
2022/01/25 05:39:26;;;;;;;0.20;0.10;;;;;;;-2.14;100.00;101951.72;5014638;28;20455;-55
2022/01/25 05:42:15;;;;;;;0.20;0.10;;;;;;;-2.03;100.00;101947.06;5014636;28;20479;-55
2022/01/25 05:45:10;;;;;;;0.43;0.40;;;;;;;-2.02;100.00;101942.75;4985241;28;20517;-55
2022/01/25 05:47:39;;;;;;;0.20;0.10;;;;;;;-2.04;100.00;101945.28;4989866;28;20873;-55
2022/01/25 05:50:07;;;;;;;0.20;0.10;;;;;;;-1.92;100.00;101951.09;4996935;28;21032;-54
2022/01/25 05:52:33;;;;;;;0.20;0.10;;;;;;;-1.82;100.00;101949.78;5007852;28;20460;-55
2022/01/25 05:55:01;;;;;;;0.20;0.10;;;;;;;-1.86;100.00;101943.53;4996715;28;20522;-55
2022/01/25 05:57:28;;;;;;;0.20;0.10;;;;;;;-1.81;100.00;101943.75;5014311;28;20498;-54
2022/01/25 05:59:55;;;;;;;0.77;0.77;;;;;;;-1.78;100.00;101949.13;5014079;28;21006;-55
2022/01/25 06:02:24;;;;;;;0.20;0.10;;;;;;;-1.71;100.00;101950.31;5014353;28;21008;-55
2022/01/25 06:04:52;;;;;;;0.20;0.10;;;;;;;-1.60;100.00;101943.91;5014103;28;20507;-53
2022/01/25 06:07:19;;;;;;;0.20;0.10;;;;;;;-1.45;100.00;101943.72;5014102;28;20506;-53
2022/01/25 06:09:48;;;;;;;0.20;0.10;;;;;;;-1.18;100.00;101947.59;5013865;28;20479;-53
2022/01/25 06:12:14;;;;;;;0.20;0.10;;;;;;;-1.29;100.00;101946.22;5014222;28;20452;-53
2022/01/25 06:14:41;;;;;;;0.20;0.10;;;;;;;-1.30;100.00;101947.03;5013898;28;20515;-53
2022/01/25 06:17:08;;;;;;;0.20;0.10;;;;;;;-1.22;100.00;101945.69;5013965;28;20519;-53
2022/01/25 06:19:34;;;;;;;0.20;0.10;;;;;;;-1.20;100.00;101944.03;5013682;28;20544;-53
2022/01/25 06:22:01;;;;;;;0.20;0.20;;;;;;;-1.15;100.00;101949.44;5013831;28;20834;-54
2022/01/25 06:24:29;;;;;;;0.20;0.10;;;;;;;-1.16;100.00;101939.84;5013445;28;20576;-53
2022/01/25 06:26:55;;;;;;;0.20;0.10;;;;;;;-1.15;100.00;101939.91;5013925;28;20511;-53
2022/01/25 06:29:22;;;;;;;0.20;0.10;;;;;;;-1.24;100.00;101929.94;5013442;28;20452;-53
2022/01/25 06:31:49;;;;;;;3.20;3.10;;;;;;;-1.15;100.00;101928.59;5013569;28;20511;-53
2022/01/25 06:34:17;;;;;;;0.20;0.10;;;;;;;-1.17;100.00;101915.47;5013460;28;20476;-53
2022/01/25 06:36:46;;;;;;;0.20;0.10;;;;;;;-1.09;100.00;101919.34;5013460;28;20498;-53
2022/01/25 06:39:13;;;;;;;0.20;0.10;;;;;;;-1.01;100.00;101920.53;5013341;28;20531;-53
2022/01/25 06:41:40;;;;;;;0.20;0.10;;;;;;;-1.09;100.00;101927.16;5013324;28;20453;-54
2022/01/25 06:44:07;;;;;;;0.20;0.10;;;;;;;-0.97;100.00;101929.41;5007985;28;20544;-53
2022/01/25 06:46:34;;;;;;;0.20;0.10;;;;;;;-0.83;100.00;101923.06;5005793;28;20472;-53
2022/01/25 06:49:01;;;;;;;0.20;0.10;;;;;;;-0.69;100.00;101932.38;5013083;28;20511;-53
2022/01/25 06:51:29;;;;;;;0.20;0.10;;;;;;;-0.65;100.00;101923.00;5008066;28;20466;-53
2022/01/25 06:53:56;;;;;;;0.20;0.10;;;;;;;-0.53;100.00;101928.75;5012364;28;20464;-53
2022/01/25 06:56:23;;;;;;;0.20;0.10;;;;;;;-0.48;100.00;101924.59;5013044;28;20449;-54
2022/01/25 06:58:50;;;;;;;0.20;0.20;;;;;;;-0.56;100.00;101922.47;5013083;28;20530;-54
2022/01/25 07:01:17;;;;;;;0.20;0.10;;;;;;;-0.60;100.00;101918.84;5013320;28;20459;-56
2022/01/25 07:03:45;;;;;;;0.20;0.10;;;;;;;-0.55;100.00;101922.53;5012721;28;20496;-53
2022/01/25 07:06:12;;;;;;;0.67;0.67;;;;;;;-0.52;100.00;101927.03;5012894;28;20480;-53
2022/01/25 07:08:39;;;;;;;0.20;0.10;;;;;;;-0.48;100.00;101929.81;5013073;28;20452;-53
2022/01/25 07:11:06;;;;;;;0.20;0.10;;;;;;;-0.47;100.00;101929.00;5013169;28;20453;-53
2022/01/25 07:13:32;;;;;;;0.20;0.17;;;;;;;-0.38;100.00;101924.16;4987120;28;20468;-54
2022/01/25 07:15:59;;;;;;;0.20;0.10;;;;;;;-0.38;100.00;101925.88;5012817;28;20506;-55
2022/01/25 07:18:26;;;;;;;0.20;0.10;;;;;;;-0.31;100.00;101930.53;5013330;28;20937;-53
2022/01/25 07:20:53;;;;;;;0.27;0.20;;;;;;;-0.37;100.00;101917.22;5012608;28;20868;-54
2022/01/25 07:23:21;;;;;;;16.43;1.13;;;;;;;-0.24;100.00;101921.25;5012590;28;20870;-53
2022/01/25 07:25:47;;;;;;;0.20;0.10;;;;;;;-0.32;100.00;101918.28;5012592;28;20973;-53
2022/01/25 07:28:14;;;;;;;0.20;0.10;;;;;;;-0.31;100.00;101918.34;5012738;28;20457;-53
2022/01/25 07:30:41;;;;;;;0.20;0.10;;;;;;;-0.27;100.00;101921.09;5012664;28;20448;-53
2022/01/25 07:33:07;;;;;;;0.30;0.30;;;;;;;-0.23;100.00;101923.91;5012054;28;20452;-55
2022/01/25 07:35:36;;;;;;;0.20;0.10;;;;;;;-0.21;100.00;101923.97;5012655;28;20452;-54
2022/01/25 07:38:08;;;;;;;0.20;0.10;;;;;;;-0.15;100.00;101922.50;5013228;28;20843;-56
2022/01/25 07:40:37;;;;;;;0.20;0.10;;;;;;;-0.14;100.00;101933.81;5012344;28;20449;-53
2022/01/25 07:43:08;;;;;;;0.20;0.10;;;;;;;-0.09;100.00;101924.47;5012822;28;20476;-53
2022/01/25 07:45:36;;;;;;;0.20;0.10;;;;;;;-0.10;100.00;101934.03;4999185;28;20453;-53
2022/01/25 07:48:05;;;;;;;0.53;0.53;;;;;;;-0.03;100.00;101930.84;5012740;28;20456;-53
2022/01/25 07:50:33;;;;;;;1.80;1.80;;;;;;;-0.08;100.00;101939.31;4994616;28;20460;-53
2022/01/25 07:53:04;;;;;;;0.60;0.60;;;;;;;-0.01;100.00;101934.41;5006171;28;20492;-53
2022/01/25 07:55:31;;;;;;;0.20;0.10;;;;;;;-0.04;100.00;101934.28;5012445;28;20445;-54
2022/01/25 07:57:58;;;;;;;3.77;1.20;;;;;;;0.04;100.00;101926.75;5012542;28;20511;-54
2022/01/25 08:00:24;;;;;;;0.20;0.10;;;;;;;0.01;100.00;101924.03;5012325;28;21003;-53
2022/01/25 08:02:52;;;;;;;0.97;0.97;;;;;;;-0.07;100.00;101934.16;5012577;28;20456;-53
2022/01/25 08:05:26;;;;;;;0.20;0.10;;;;;;;0.04;100.00;101937.22;5012356;28;20576;-53
2022/01/25 08:07:59;;;;;;;0.20;0.10;;;;;;;0.11;100.00;101935.72;5012452;28;20451;-53
2022/01/25 08:10:26;;;;;;;0.80;0.53;;;;;;;0.25;100.00;101935.44;5012153;28;20452;-53
2022/01/25 08:12:53;;;;;;;0.20;0.10;;;;;;;0.26;100.00;101941.56;5012009;28;20453;-55
2022/01/25 08:15:32;;;;;;;21.50;2.63;;;;;;;0.36;100.00;101940.22;5012309;28;20444;-55
2022/01/25 08:17:59;;;;;;;0.30;0.20;;;;;;;0.42;100.00;101941.38;5012074;28;20448;-56
2022/01/25 08:20:25;;;;;;;0.20;0.10;;;;;;;0.41;100.00;101939.59;5012335;28;20452;-55
2022/01/25 08:22:58;;;;;;;0.20;0.10;;;;;;;0.44;100.00;101933.56;5012130;28;20513;-56
2022/01/25 08:25:25;;;;;;;0.20;0.10;;;;;;;0.44;100.00;101941.41;5012125;28;20488;-53
2022/01/25 08:27:55;;;;;;;3.10;2.17;;;;;;;0.57;100.00;101936.72;5012231;28;20441;-53
2022/01/25 08:30:27;;;;;;;0.30;0.30;;;;;;;0.56;100.00;101941.91;5012067;28;20448;-54
2022/01/25 08:32:58;;;;;;;0.20;0.20;;;;;;;0.54;100.00;101936.59;5005473;28;20445;-53
2022/01/25 08:35:42;;;;;;;0.20;0.10;;;;;;;0.72;100.00;101946.00;4977370;28;20461;-53
2022/01/25 08:38:11;;;;;;;0.20;0.10;;;;;;;0.76;100.00;101954.00;5011748;28;20987;-53
2022/01/25 08:40:51;;;;;;;1.23;1.23;;;;;;;0.73;100.00;101955.63;5008590;28;20479;-54
2022/01/25 08:43:22;;;;;;;0.20;0.10;;;;;;;0.72;100.00;101957.34;5012047;28;20476;-54
2022/01/25 08:45:48;;;;;;;0.20;0.10;;;;;;;0.87;100.00;101959.66;4998627;28;20527;-54
2022/01/25 08:48:17;;;;;;;0.40;0.40;;;;;;;0.80;100.00;101948.03;5011809;28;20449;-54
2022/01/25 08:50:58;;;;;;;0.20;0.10;;;;;;;0.83;100.00;101955.16;4980387;28;20492;-53
2022/01/25 08:53:31;;;;;;;0.30;0.30;;;;;;;0.84;100.00;101957.81;5007805;28;20970;-54
2022/01/25 08:56:08;;;;;;;0.50;0.47;;;;;;;0.90;100.00;101954.53;5012127;28;20451;-53
2022/01/25 08:58:58;;;;;;;0.30;0.20;;;;;;;0.90;100.00;101954.53;4987226;28;20498;-53
2022/01/25 09:01:26;;;;;;;0.20;0.10;;;;;;;0.96;100.00;101951.22;5011990;28;20457;-54
2022/01/25 09:03:56;;;;;;;0.20;0.10;;;;;;;0.97;100.00;101961.78;5014662;28;20870;-53
2022/01/25 09:06:23;;;;;;;0.20;0.10;;;;;;;0.97;100.00;101960.91;5015529;28;20448;-54
2022/01/25 09:08:51;;;;;;;0.20;0.20;;;;;;;1.04;100.00;101961.16;5015304;28;20875;-55
2022/01/25 09:11:18;;;;;;;0.40;0.40;;;;;;;1.07;100.00;101970.84;5015475;28;20459;-53
2022/01/25 09:13:45;;;;;;;2.77;2.67;;;;;;;1.06;100.00;101959.50;5015409;28;20472;-55
2022/01/25 09:16:11;;;;;;;0.20;0.20;;;;;;;1.17;100.00;101966.00;5015164;28;20452;-54
2022/01/25 09:18:38;;;;;;;0.20;0.10;;;;;;;1.14;100.00;101970.25;5015304;28;20875;-54
2022/01/25 09:21:05;;;;;;;0.40;0.40;;;;;;;1.17;100.00;101968.63;5015093;28;20511;-54
2022/01/25 09:23:32;;;;;;;0.20;0.10;;;;;;;1.24;100.00;101975.00;5014844;28;20472;-54
2022/01/25 09:25:59;;;;;;;0.20;0.10;;;;;;;1.26;100.00;101968.09;5014944;28;20453;-54
2022/01/25 09:28:25;;;;;;;0.20;0.20;;;;;;;1.32;100.00;101973.53;5014886;28;20514;-54
2022/01/25 09:30:52;;;;;;;0.20;0.20;;;;;;;1.35;100.00;101973.63;5014674;28;21212;-54
2022/01/25 09:33:21;;;;;;;2.57;2.57;;;;;;;1.28;100.00;101981.25;5014738;28;20472;-54
2022/01/25 09:35:48;;;;;;;0.20;0.17;;;;;;;1.32;100.00;101976.16;5014731;28;20452;-54
2022/01/25 09:38:16;;;;;;;9.43;1.50;;;;;;;1.39;100.00;101985.16;5014626;28;20448;-54
2022/01/25 09:40:43;;;;;;;0.40;0.40;;;;;;;1.42;100.00;101980.91;5014598;28;20544;-55
2022/01/25 09:43:11;;;;;;;0.20;0.20;;;;;;;1.45;100.00;101985.34;5014769;28;20484;-54
2022/01/25 09:45:38;;;;;;;0.20;0.10;;;;;;;1.58;100.00;101981.44;5001532;28;20520;-55
2022/01/25 09:48:07;;;;;;;0.20;0.10;;;;;;;1.70;100.00;101976.63;5014611;28;20954;-54
2022/01/25 09:50:38;;;;;;;0.20;0.10;;;;;;;1.64;100.00;101979.91;5014443;28;20483;-54
2022/01/25 09:53:06;;;;;;;0.67;0.67;;;;;;;1.69;100.00;101977.47;5008400;28;20484;-54
2022/01/25 09:55:35;;;;;;;0.20;0.20;;;;;;;1.75;100.00;101981.16;5014578;28;20480;-54
2022/01/25 09:58:03;;;;;;;0.57;0.57;;;;;;;1.91;100.00;101984.31;5014481;28;20457;-54
2022/01/25 10:00:32;;;;;;;7.20;1.60;;;;;;;1.90;100.00;101991.28;5014375;28;20536;-54
2022/01/25 10:05:43;;;;;;;0.20;0.10;;;;;;;1.95;100.00;101987.13;5014407;28;20500;-54
2022/01/25 10:08:21;;;;;;;0.30;0.20;;;;;;;2.02;100.00;101986.47;5014029;28;20877;-54
2022/01/25 10:10:50;;;;;;;0.20;0.20;;;;;;;1.98;100.00;101984.59;5014305;28;20472;-54
2022/01/25 10:13:23;;;;;;;0.20;0.10;;;;;;;2.08;100.00;101985.78;5009150;28;20515;-55
2022/01/25 10:16:10;;;;;;;2.13;2.03;;;;;;;2.07;100.00;101982.28;5006432;28;20437;-54
2022/01/25 10:18:39;;;;;;;2.00;1.90;;;;;;;2.08;100.00;101981.44;4991907;28;20449;-54
2022/01/25 10:21:14;;;;;;;0.20;0.10;;;;;;;2.10;100.00;101981.50;5013596;28;21036;-54
2022/01/25 10:24:00;;;;;;;0.30;0.20;;;;;;;2.10;100.00;101977.97;5013558;28;20464;-54
2022/01/25 10:26:33;;;;;;;2.00;1.13;;;;;;;2.18;100.00;101972.13;5013761;28;20535;-55
2022/01/25 10:29:12;;;;;;;0.20;0.10;;;;;;;2.16;100.00;101971.19;5013635;28;20452;-54
2022/01/25 10:31:46;;;;;;;0.20;0.10;;;;;;;2.24;100.00;101974.97;5013864;28;20464;-54
2022/01/25 10:34:16;;;;;;;1.03;1.03;;;;;;;2.23;100.00;101974.91;5013922;28;20523;-54
2022/01/25 10:36:47;;;;;;;0.20;0.10;;;;;;;2.31;100.00;101978.66;5013881;28;20484;-54
2022/01/25 10:39:21;;;;;;;0.20;0.10;;;;;;;2.31;100.00;101970.78;5013617;28;20952;-54
2022/01/25 10:41:47;;;;;;;1.90;1.80;;;;;;;2.49;100.00;101976.63;5013570;28;20449;-54
2022/01/25 10:44:14;;;;;;;0.40;0.40;;;;;;;2.43;100.00;101976.44;5007149;28;20825;-54
2022/01/25 10:46:41;;;;;;;0.20;0.20;;;;;;;2.40;100.00;101971.09;5006784;28;20571;-54
2022/01/25 10:49:11;;;;;;;1.53;0.70;;;;;;;2.48;100.00;101969.63;5013591;28;20473;-54
2022/01/25 10:51:39;;;;;;;0.20;0.10;;;;;;;2.46;100.00;101970.38;5007688;28;20511;-54
2022/01/25 10:54:14;;;;;;;0.20;0.10;;;;;;;2.67;100.00;101976.31;5013376;28;20472;-55
2022/01/25 10:56:43;;;;;;;0.20;0.17;;;;;;;2.63;100.00;101980.59;5013143;28;20448;-54
2022/01/25 10:59:14;;;;;;;0.20;0.10;;;;;;;2.63;100.00;101980.59;5013231;28;20448;-55
2022/01/25 11:02:05;;;;;;;0.20;0.17;;;;;;;2.74;100.00;101977.38;5012944;28;20453;-54
2022/01/25 11:04:41;;;;;;;0.20;0.10;;;;;;;2.69;100.00;101977.25;5012971;28;20492;-55
2022/01/25 11:07:10;;;;;;;0.20;0.20;;;;;;;2.71;100.00;101972.94;5013131;28;20511;-54
2022/01/25 11:09:40;;;;;;;0.30;0.20;;;;;;;2.76;100.00;101981.84;5012919;28;20457;-54
2022/01/25 11:12:11;;;;;;;0.20;0.10;;;;;;;2.70;100.00;101981.66;5013017;28;20456;-54
2022/01/25 11:14:53;;;;;;;0.20;0.10;;;;;;;2.70;100.00;101975.50;5013015;28;20472;-54
2022/01/25 11:17:22;;;;;;;0.30;0.20;;;;;;;2.76;100.00;101970.47;5012948;28;20448;-54
2022/01/25 11:19:50;;;;;;;0.20;0.10;;;;;;;2.85;100.00;101953.22;5012765;28;20481;-54
2022/01/25 11:22:19;;;;;;;0.63;0.60;;;;;;;2.91;100.00;101958.69;5012720;28;20943;-55
2022/01/25 11:24:50;;;;;;;0.30;0.20;;;;;;;2.94;100.00;101956.13;4999273;28;20496;-54
2022/01/25 11:27:18;;;;;;;0.20;0.10;;;;;;;2.98;100.00;101951.84;5012082;28;20518;-55
2022/01/25 11:29:47;;;;;;;1.03;0.83;;;;;;;2.84;100.00;101951.44;4987117;28;20457;-55
2022/01/25 11:32:19;;;;;;;0.20;0.20;;;;;;;3.09;100.00;101952.16;5012766;28;20531;-54
2022/01/25 11:34:48;;;;;;;0.20;0.20;;;;;;;2.90;100.00;101962.16;5012581;28;20531;-54
2022/01/25 11:37:15;;;;;;;2.43;2.43;;;;;;;2.85;100.00;101945.34;5012486;28;20552;-55
2022/01/25 11:39:45;;;;;;;0.20;0.10;;;;;;;2.91;100.00;101956.06;5012501;28;20494;-54
2022/01/25 11:42:19;;;;;;;0.20;0.10;;;;;;;2.87;100.00;101946.28;5012665;28;20489;-54
2022/01/25 11:44:52;;;;;;;0.20;0.10;;;;;;;2.89;100.00;101955.13;5001966;28;20497;-55
2022/01/25 11:47:23;;;;;;;0.20;0.10;;;;;;;2.93;100.00;101945.59;5010775;28;20503;-54
2022/01/25 11:49:55;;;;;;;0.20;0.10;;;;;;;2.99;100.00;101943.13;5012747;28;20453;-54
2022/01/25 11:52:24;;;;;;;1.60;1.60;;;;;;;3.12;100.00;101937.38;5006314;28;20463;-54
2022/01/25 11:54:53;;;;;;;0.20;0.10;;;;;;;3.42;100.00;101939.97;5012377;28;20576;-55
2022/01/25 11:57:25;;;;;;;0.20;0.20;;;;;;;3.31;100.00;101943.16;5012542;28;21024;-54
2022/01/25 11:59:57;;;;;;;0.20;0.20;;;;;;;3.27;100.00;101931.66;5012157;28;20863;-54
2022/01/25 12:02:46;;;;;;;0.20;0.10;;;;;;;3.24;100.00;101935.09;5012748;28;20488;-55
2022/01/25 12:05:17;;;;;;;0.20;0.10;;;;;;;3.24;100.00;101932.47;5011993;28;21059;-54
2022/01/25 12:08:06;;;;;;;0.20;0.10;;;;;;;3.24;100.00;101939.47;5012429;28;20475;-54
2022/01/25 12:10:32;;;;;;;1.37;1.27;;;;;;;3.20;100.00;101933.25;4991982;28;20965;-55
2022/01/25 12:13:16;;;;;;;1.37;0.97;;;;;;;3.22;100.00;101935.91;5012466;28;20453;-54
2022/01/25 12:15:44;;;;;;;0.30;0.23;;;;;;;3.21;100.00;101940.28;5012485;28;20472;-54
2022/01/25 12:18:59;;;;;;;0.30;0.30;;;;;;;3.46;100.00;101933.97;5012140;28;20515;-54
2022/01/25 12:21:54;;;;;;;0.30;0.20;;;;;;;3.23;100.00;101932.44;4932496;29;20467;-55
2022/01/25 12:24:30;;;;;;;0.20;0.10;;;;;;;3.24;100.00;101935.09;4932550;29;20483;-54
2022/01/25 12:27:27;;;;;;;0.20;0.10;;;;;;;3.41;100.00;101934.66;4996414;28;20787;-55
2022/01/25 12:30:04;;;;;;;0.20;0.10;;;;;;;3.39;100.00;101925.84;4990356;28;20798;-55
2022/01/25 12:32:36;;;;;;;0.20;0.10;;;;;;;3.34;100.00;101930.09;5012190;28;20484;-54
2022/01/25 12:35:05;;;;;;;0.20;0.20;;;;;;;3.31;100.00;101924.78;5011970;28;20476;-55
2022/01/25 12:37:44;;;;;;;1.73;1.73;;;;;;;3.12;100.00;101926.88;5012733;28;20448;-54
2022/01/25 12:40:26;;;;;;;0.20;0.10;;;;;;;3.11;100.00;101917.22;5015807;28;20452;-56
2022/01/25 12:42:57;;;;;;;0.20;0.10;;;;;;;3.11;100.00;101916.31;5015746;28;20862;-55
2022/01/25 12:45:26;;;;;;;0.20;0.10;;;;;;;3.17;100.00;101913.88;5002328;28;20515;-54
2022/01/25 12:48:03;;;;;;;0.20;0.10;;;;;;;3.23;100.00;101912.28;5015828;28;20582;-54
2022/01/25 12:50:30;;;;;;;0.20;0.20;;;;;;;3.24;100.00;101908.81;5015940;28;20479;-54
2022/01/25 12:53:01;;;;;;;0.20;0.10;;;;;;;3.26;100.00;101909.75;5009491;28;20507;-54
2022/01/25 12:55:31;;;;;;;0.30;0.30;;;;;;;3.20;100.00;101906.97;5015396;28;20449;-55
2022/01/25 12:57:58;;;;;;;0.20;0.10;;;;;;;3.23;100.00;101907.03;5015534;28;20484;-56
2022/01/25 13:00:33;;;;;;;0.30;0.20;;;;;;;3.17;100.00;101899.00;5015371;28;20958;-55
2022/01/25 13:03:19;;;;;;;0.20;0.10;;;;;;;3.25;100.00;101907.97;5015417;28;20448;-54
2022/01/25 13:05:55;;;;;;;0.20;0.10;;;;;;;3.38;100.00;101910.94;5015370;28;20491;-54
2022/01/25 13:08:27;;;;;;;0.20;0.10;;;;;;;3.32;100.00;101908.16;5015045;28;20937;-54
2022/01/25 13:11:13;;;;;;;0.20;0.10;;;;;;;3.29;100.00;101903.72;5015182;28;20452;-54
2022/01/25 13:16:56;;;;;;;0.20;0.10;;;;;;;3.48;100.00;101902.44;5015053;28;20459;-55
2022/01/25 13:19:37;;;;;;;0.20;0.10;;;;;;;3.63;100.00;101905.47;5014814;28;20453;-54
2022/01/25 13:22:12;;;;;;;0.43;0.43;;;;;;;3.49;100.00;101899.84;5015079;28;20499;-54
2022/01/25 13:25:25;;;;;;;0.20;0.10;;;;;;;3.56;100.00;101893.94;5014696;28;21007;-54
2022/01/25 13:27:47;;;;;;;0.20;0.10;;;;;;;3.37;100.00;101891.66;5014753;28;20493;-55
2022/01/25 13:33:02;;;;;;;1.83;0.77;;;;;;;3.24;100.00;101890.44;4990246;28;20453;-54
2022/01/25 13:35:34;;;;;;;0.20;0.10;;;;;;;3.16;100.00;101888.47;5001707;28;20465;-55
2022/01/25 13:38:23;;;;;;;0.20;0.10;;;;;;;3.15;100.00;101884.94;5015096;28;20445;-55